Time;durP1;ratioP1;P1;durP2;ratioP2;P2;SDS_P1;SDS_P2;PMS_P1;PMS_P2;Temp;Humidity;BMP_temperature;BMP_pressure;BME280_temperature;BME280_humidity;BME280_pressure;Samples;Min_cycle;Max_cycle;Signal;HPM_P1;HPM_P2
2023/04/13 00:02:11;;;;;;;5.75;2.47;;;6.60;99.90;;;;;;5100590;27;20046;-90
2023/04/13 00:04:37;;;;;;;6.05;2.53;;;6.70;99.90;;;;;;5096379;27;20039;-88
2023/04/13 00:07:03;;;;;;;8.48;2.50;;;6.70;99.90;;;;;;5090843;27;20124;-89
2023/04/13 00:09:32;;;;;;;8.15;2.78;;;6.70;99.90;;;;;;5106928;27;20113;-89
2023/04/13 00:11:58;;;;;;;7.50;2.63;;;6.70;99.90;;;;;;5106427;27;20644;-90
2023/04/13 00:14:27;;;;;;;7.22;2.70;;;6.80;99.90;;;;;;5120795;27;20066;-89
2023/04/13 00:16:53;;;;;;;6.90;2.70;;;6.80;99.90;;;;;;5103815;27;20536;-89
2023/04/13 00:19:18;;;;;;;7.47;2.47;;;6.80;99.90;;;;;;5121810;27;20109;-89
2023/04/13 00:21:45;;;;;;;6.43;2.78;;;6.80;99.90;;;;;;5104791;27;20041;-89
2023/04/13 00:24:10;;;;;;;6.55;2.22;;;6.90;99.90;;;;;;5105727;27;20042;-87
2023/04/13 00:26:37;;;;;;;6.72;2.25;;;7.00;99.90;;;;;;5086203;28;20036;-88
2023/04/13 00:29:02;;;;;;;7.60;2.28;;;7.00;99.90;;;;;;5084558;28;20122;-88
2023/04/13 00:31:28;;;;;;;4.90;2.00;;;7.10;99.90;;;;;;5085985;28;20119;-89
2023/04/13 00:33:54;;;;;;;5.47;2.05;;;7.10;99.90;;;;;;5103134;27;20043;-89
2023/04/13 00:36:23;;;;;;;6.00;1.80;;;7.20;99.90;;;;;;5086067;28;20583;-90
2023/04/13 00:38:49;;;;;;;6.13;2.13;;;7.20;99.90;;;;;;5103281;28;20043;-88
2023/04/13 00:41:15;;;;;;;5.55;1.55;;;7.20;99.90;;;;;;5103171;28;20027;-88
2023/04/13 00:43:41;;;;;;;4.57;1.48;;;7.30;99.90;;;;;;5083873;28;20092;-88
2023/04/13 00:46:07;;;;;;;4.55;1.58;;;7.30;99.90;;;;;;5102030;28;20038;-89
2023/04/13 00:48:33;;;;;;;3.97;1.15;;;7.30;99.90;;;;;;5102839;28;20531;-89
2023/04/13 00:51:01;;;;;;;7.43;1.75;;;7.30;99.90;;;;;;5085815;28;20028;-90
2023/04/13 00:53:28;;;;;;;4.78;1.40;;;7.30;99.90;;;;;;5085272;28;20058;-89
2023/04/13 00:55:54;;;;;;;5.55;1.58;;;7.30;99.90;;;;;;5087151;28;20043;-89
2023/04/13 00:58:21;;;;;;;5.25;1.40;;;7.30;99.90;;;;;;5101320;28;20032;-89
2023/04/13 01:00:46;;;;;;;6.10;1.92;;;7.30;99.90;;;;;;5102548;28;20039;-89
2023/04/13 01:03:12;;;;;;;4.43;1.48;;;7.20;99.90;;;;;;5090176;27;20243;-89
2023/04/13 01:05:49;;;;;;;2.90;1.20;;;7.20;99.90;;;;;;5099838;27;20669;-89
2023/04/13 01:08:26;;;;;;;3.90;1.30;;;7.20;99.90;;;;;;5104158;27;20391;-89
2023/04/13 01:10:57;;;;;;;4.93;1.50;;;7.20;99.90;;;;;;5089992;27;20039;-88
2023/04/13 01:13:57;;;;;;;3.28;1.25;;;7.10;99.90;;;;;;5088823;27;20042;-89
2023/04/13 01:16:38;;;;;;;4.28;1.40;;;7.10;99.90;;;;;;5113025;27;20035;-89
2023/04/13 01:19:08;;;;;;;4.63;1.20;;;7.10;99.90;;;;;;5089147;27;20031;-89
2023/04/13 01:21:36;;;;;;;3.00;1.00;;;7.10;99.90;;;;;;5089490;27;20043;-88
2023/04/13 01:24:16;;;;;;;3.58;1.20;;;7.10;99.90;;;;;;5089039;27;20088;-89
2023/04/13 01:26:57;;;;;;;3.15;1.17;;;7.10;99.90;;;;;;5105928;27;20031;-88
2023/04/13 01:29:25;;;;;;;4.35;1.20;;;7.10;99.90;;;;;;5096962;27;20110;-89
2023/04/13 01:31:53;;;;;;;3.60;1.05;;;7.00;99.90;;;;;;5132988;27;20042;-88
2023/04/13 01:34:20;;;;;;;5.63;1.27;;;7.00;99.90;;;;;;5098882;27;20434;-89
2023/04/13 01:36:46;;;;;;;4.63;1.17;;;7.10;99.90;;;;;;5099383;27;20043;-89
2023/04/13 01:39:19;;;;;;;4.00;1.20;;;7.00;99.90;;;;;;5092350;28;20180;-89
2023/04/13 01:41:45;;;;;;;2.80;1.20;;;7.00;99.90;;;;;;5097611;27;20031;-89
2023/04/13 01:44:11;;;;;;;7.10;1.95;;;7.10;99.90;;;;;;5098818;27;20039;-89
2023/04/13 01:46:42;;;;;;;3.45;1.35;;;7.00;99.90;;;;;;5116050;27;20114;-89
2023/04/13 01:49:09;;;;;;;5.25;1.30;;;7.00;99.90;;;;;;5098830;27;20039;-89
2023/04/13 01:51:37;;;;;;;4.93;1.27;;;7.10;99.90;;;;;;5090448;28;20114;-89
2023/04/13 01:54:10;;;;;;;5.60;1.33;;;7.10;99.90;;;;;;5078480;28;20036;-89
2023/04/13 01:56:40;;;;;;;4.07;0.90;;;7.10;99.90;;;;;;5084126;27;20133;-88
2023/04/13 01:59:06;;;;;;;5.03;1.20;;;7.10;99.90;;;;;;5080027;28;20557;-88
2023/04/13 02:01:31;;;;;;;2.90;1.10;;;7.10;99.90;;;;;;5078567;28;20081;-89
2023/04/13 02:03:57;;;;;;;4.82;1.35;;;7.10;99.90;;;;;;5086401;28;20122;-89
2023/04/13 02:06:23;;;;;;;3.22;1.38;;;7.00;99.90;;;;;;5078751;28;20124;-89
2023/04/13 02:08:49;;;;;;;3.47;1.15;;;7.10;99.90;;;;;;5086211;27;20077;-88
2023/04/13 02:11:14;;;;;;;4.75;1.20;;;7.00;99.90;;;;;;5098294;27;20085;-88
2023/04/13 02:13:41;;;;;;;8.10;1.38;;;7.00;99.90;;;;;;5097422;27;20454;-89
2023/04/13 02:16:10;;;;;;;3.97;1.70;;;7.00;99.90;;;;;;5097052;27;20104;-89
2023/04/13 02:18:35;;;;;;;5.95;1.30;;;7.00;99.90;;;;;;5098034;27;20068;-88
2023/04/13 02:21:08;;;;;;;3.38;1.10;;;7.00;99.90;;;;;;5096149;27;20124;-89
2023/04/13 02:23:39;;;;;;;3.97;1.00;;;7.00;99.90;;;;;;5094649;28;20051;-88
2023/04/13 02:26:12;;;;;;;4.65;1.20;;;7.00;99.90;;;;;;5078283;28;20042;-89
2023/04/13 02:28:39;;;;;;;3.45;1.10;;;7.00;99.90;;;;;;5102965;28;20591;-89
2023/04/13 02:31:05;;;;;;;4.85;1.45;;;7.00;99.90;;;;;;5077991;28;20097;-89
2023/04/13 02:33:32;;;;;;;4.80;1.10;;;6.90;99.90;;;;;;5094401;28;20036;-89
2023/04/13 02:35:58;;;;;;;4.38;1.10;;;6.90;99.90;;;;;;5109717;27;20031;-89
2023/04/13 02:38:26;;;;;;;6.00;1.65;;;6.90;99.90;;;;;;5097252;27;20502;-89
2023/04/13 02:40:59;;;;;;;3.30;1.35;;;7.00;99.90;;;;;;5113249;27;20090;-89
2023/04/13 02:43:25;;;;;;;3.38;1.20;;;6.90;99.90;;;;;;5097573;27;20039;-89
2023/04/13 02:45:51;;;;;;;5.00;1.48;;;7.00;99.90;;;;;;5097527;27;20523;-89
2023/04/13 02:48:18;;;;;;;6.18;1.25;;;6.90;99.90;;;;;;5082143;28;20469;-89
2023/04/13 02:50:44;;;;;;;5.43;1.30;;;6.90;99.90;;;;;;5077363;28;20067;-90
2023/04/13 02:53:10;;;;;;;3.95;0.95;;;6.90;99.90;;;;;;5111233;27;20035;-89
2023/04/13 02:55:36;;;;;;;3.90;1.38;;;7.00;99.90;;;;;;5097156;27;20483;-89
2023/04/13 02:58:03;;;;;;;4.43;1.10;;;7.00;99.90;;;;;;5095952;27;20035;-89
2023/04/13 03:00:29;;;;;;;4.25;1.10;;;6.90;99.90;;;;;;5097234;27;20046;-89
2023/04/13 03:02:55;;;;;;;3.60;1.17;;;6.90;99.90;;;;;;5096438;27;20035;-88
2023/04/13 03:05:21;;;;;;;4.70;1.35;;;6.90;99.90;;;;;;5096909;27;20118;-89
2023/04/13 03:07:47;;;;;;;5.10;1.02;;;6.90;99.90;;;;;;5106237;27;20118;-88
2023/04/13 03:10:13;;;;;;;3.47;1.02;;;6.90;99.90;;;;;;5102593;27;20579;-88
2023/04/13 03:12:39;;;;;;;4.10;1.10;;;6.90;99.90;;;;;;5076801;28;20043;-88
2023/04/13 03:15:06;;;;;;;4.97;1.17;;;6.90;99.90;;;;;;5076010;28;20039;-88
2023/04/13 03:17:32;;;;;;;6.25;1.52;;;6.90;99.90;;;;;;5076482;28;20048;-88
2023/04/13 03:19:58;;;;;;;3.47;1.10;;;6.90;99.90;;;;;;5093713;28;20036;-89
2023/04/13 03:22:29;;;;;;;4.43;1.08;;;6.90;99.90;;;;;;5085213;28;20071;-88
2023/04/13 03:24:55;;;;;;;4.10;1.20;;;6.90;99.90;;;;;;5076574;28;20047;-88
2023/04/13 03:27:21;;;;;;;4.10;1.30;;;6.90;99.90;;;;;;5101351;27;20035;-89
2023/04/13 03:29:47;;;;;;;5.07;1.40;;;6.90;99.90;;;;;;5093533;28;20051;-88
2023/04/13 03:32:13;;;;;;;3.75;1.20;;;6.90;99.90;;;;;;5078124;27;20036;-88
2023/04/13 03:34:42;;;;;;;3.65;1.30;;;6.90;99.90;;;;;;5095770;27;20055;-89
2023/04/13 03:37:09;;;;;;;3.28;1.13;;;6.90;99.90;;;;;;5112956;27;20041;-88
2023/04/13 03:39:35;;;;;;;4.00;1.25;;;6.90;99.90;;;;;;5094521;27;20035;-88
2023/04/13 03:42:02;;;;;;;4.93;1.17;;;6.90;99.90;;;;;;5112986;27;20039;-89
2023/04/13 03:44:28;;;;;;;4.40;1.27;;;6.90;99.90;;;;;;5093919;27;20545;-89
2023/04/13 03:46:54;;;;;;;2.67;1.10;;;6.90;99.90;;;;;;5076185;28;20043;-89
2023/04/13 03:49:20;;;;;;;5.60;1.73;;;6.90;99.90;;;;;;5092840;28;20657;-88
2023/04/13 03:51:46;;;;;;;4.07;1.20;;;6.90;99.90;;;;;;5109677;27;20719;-88
2023/04/13 03:54:11;;;;;;;4.63;1.40;;;7.00;99.90;;;;;;5112566;27;20041;-89
2023/04/13 03:56:37;;;;;;;5.10;1.52;;;7.00;99.90;;;;;;5109925;27;20031;-89
2023/04/13 03:59:03;;;;;;;3.88;1.17;;;7.00;99.90;;;;;;5092959;28;20416;-89
2023/04/13 04:01:28;;;;;;;4.25;1.10;;;7.00;99.90;;;;;;5082743;27;20031;-88
2023/04/13 04:03:55;;;;;;;4.13;1.23;;;7.00;99.90;;;;;;5093122;28;20047;-88
2023/04/13 04:06:22;;;;;;;4.30;1.38;;;7.00;99.90;;;;;;5077717;27;20049;-88
2023/04/13 04:08:48;;;;;;;6.95;1.67;;;7.00;99.90;;;;;;5094204;27;20081;-88
2023/04/13 04:11:15;;;;;;;4.25;1.33;;;7.00;99.90;;;;;;5112232;27;20039;-88
2023/04/13 04:13:41;;;;;;;4.57;1.40;;;7.00;99.90;;;;;;5094746;27;20031;-88
2023/04/13 04:16:07;;;;;;;3.55;1.55;;;7.10;99.90;;;;;;5102645;27;20046;-88
2023/04/13 04:18:34;;;;;;;4.70;2.22;;;7.10;99.90;;;;;;5112432;28;20043;-88
2023/04/13 04:21:03;;;;;;;4.35;1.58;;;7.10;99.90;;;;;;5095088;28;20043;-88
2023/04/13 04:23:29;;;;;;;3.67;1.33;;;7.10;99.90;;;;;;5095769;28;20034;-88
2023/04/13 04:25:58;;;;;;;4.82;1.33;;;7.10;99.90;;;;;;5095225;28;20057;-88
2023/04/13 04:28:24;;;;;;;5.75;2.22;;;7.10;99.90;;;;;;5096259;28;20069;-88
2023/04/13 04:30:54;;;;;;;3.20;1.20;;;7.10;99.90;;;;;;5130219;28;20046;-87
2023/04/13 04:33:23;;;;;;;3.25;1.25;;;7.10;99.90;;;;;;5075605;28;20081;-88
2023/04/13 04:35:50;;;;;;;3.08;1.50;;;7.10;99.90;;;;;;5075107;28;20097;-88
2023/04/13 04:38:20;;;;;;;2.78;1.30;;;7.10;99.90;;;;;;5085791;28;20035;-88
2023/04/13 04:40:47;;;;;;;4.85;1.30;;;7.10;99.90;;;;;;5078726;28;20042;-89
2023/04/13 04:43:13;;;;;;;3.53;1.40;;;7.10;99.90;;;;;;5100768;28;20032;-88
2023/04/13 04:45:42;;;;;;;4.95;1.50;;;7.10;99.90;;;;;;5115680;28;20054;-89
2023/04/13 04:48:08;;;;;;;7.07;1.48;;;7.10;99.90;;;;;;5097435;28;20039;-89
2023/04/13 04:50:36;;;;;;;3.88;1.50;;;7.10;99.90;;;;;;5080198;28;20119;-90
2023/04/13 04:53:02;;;;;;;5.88;1.60;;;7.10;99.90;;;;;;5080194;28;20476;-90
2023/04/13 04:55:28;;;;;;;6.93;1.77;;;7.00;99.90;;;;;;5094376;27;20038;-89
2023/04/13 04:57:54;;;;;;;7.28;1.77;;;7.00;99.90;;;;;;5117277;27;20031;-89
2023/04/13 05:00:20;;;;;;;6.28;1.65;;;7.00;99.90;;;;;;5099190;27;20038;-89
2023/04/13 05:02:47;;;;;;;6.32;1.50;;;6.90;99.90;;;;;;5096505;28;20042;-90
2023/04/13 05:05:13;;;;;;;5.32;1.55;;;6.80;99.90;;;;;;5078947;28;20078;-90
2023/04/13 05:07:39;;;;;;;5.43;1.77;;;6.80;99.90;;;;;;5099220;27;20052;-89
2023/04/13 05:10:08;;;;;;;4.68;1.70;;;6.80;99.90;;;;;;5115226;27;20039;-88
2023/04/13 05:12:34;;;;;;;6.78;1.73;;;6.70;99.90;;;;;;5098808;27;20053;-89
2023/04/13 05:15:00;;;;;;;6.35;1.65;;;6.70;99.90;;;;;;5099004;27;20035;-89
2023/04/13 05:17:25;;;;;;;8.13;1.95;;;6.70;99.90;;;;;;5099482;27;20035;-89
2023/04/13 05:19:51;;;;;;;5.28;1.80;;;6.70;99.90;;;;;;5086182;28;20493;-89
2023/04/13 05:22:17;;;;;;;5.78;1.70;;;6.70;99.90;;;;;;5096455;28;20054;-89
2023/04/13 05:24:43;;;;;;;8.35;2.28;;;6.70;99.90;;;;;;5088430;27;20568;-88
2023/04/13 05:27:10;;;;;;;7.05;2.20;;;6.60;99.90;;;;;;5116376;27;20560;-90
2023/04/13 05:29:36;;;;;;;6.38;2.20;;;6.60;99.90;;;;;;5115544;27;20078;-90
2023/04/13 05:32:02;;;;;;;5.97;2.10;;;6.70;99.90;;;;;;5098999;27;20070;-90
2023/04/13 05:34:28;;;;;;;6.95;2.40;;;6.60;99.90;;;;;;5098944;27;20188;-90
2023/04/13 05:36:54;;;;;;;7.10;2.50;;;6.60;99.90;;;;;;5094506;28;20040;-90
2023/04/13 05:39:20;;;;;;;7.93;2.55;;;6.70;99.90;;;;;;5114347;27;20054;-90
2023/04/13 05:41:46;;;;;;;7.68;2.40;;;6.70;99.90;;;;;;5115044;27;20061;-90
2023/04/13 05:44:12;;;;;;;5.68;2.10;;;6.70;99.90;;;;;;5114911;27;20555;-90
2023/04/13 05:46:37;;;;;;;10.07;3.15;;;6.80;99.90;;;;;;5099229;27;20530;-90
2023/04/13 05:49:03;;;;;;;9.18;3.30;;;6.80;99.90;;;;;;5097743;27;20492;-90
2023/04/13 05:51:30;;;;;;;8.73;3.28;;;6.80;99.90;;;;;;5115200;27;20074;-90
2023/04/13 05:53:56;;;;;;;8.98;3.20;;;6.90;99.90;;;;;;5115656;27;20039;-90
2023/04/13 05:56:22;;;;;;;7.60;2.70;;;6.90;99.90;;;;;;5089561;27;20042;-90
2023/04/13 05:58:48;;;;;;;8.60;2.70;;;7.00;99.90;;;;;;5115621;27;20050;-90
2023/04/13 06:01:15;;;;;;;8.45;2.90;;;7.00;99.90;;;;;;5098783;27;20118;-90
2023/04/13 06:03:42;;;;;;;5.25;2.25;;;7.10;99.90;;;;;;5086848;28;20046;-90
2023/04/13 06:06:08;;;;;;;9.40;2.72;;;7.20;99.90;;;;;;5079167;28;20373;-90
2023/04/13 06:08:34;;;;;;;7.55;2.85;;;7.20;99.90;;;;;;5084514;27;20087;-89
2023/04/13 06:11:00;;;;;;;9.05;2.88;;;7.20;99.90;;;;;;5080014;28;20036;-90
2023/04/13 06:13:26;;;;;;;8.10;3.03;;;7.30;99.90;;;;;;5077984;28;20043;-90
2023/04/13 06:15:52;;;;;;;8.68;3.05;;;7.30;99.90;;;;;;5083209;28;20039;-90
2023/04/13 06:18:18;;;;;;;7.60;2.80;;;7.30;99.90;;;;;;5077511;28;20047;-90
2023/04/13 06:20:45;;;;;;;8.63;2.65;;;7.30;99.90;;;;;;5111242;27;20043;-90
2023/04/13 06:23:11;;;;;;;10.45;3.17;;;7.30;99.90;;;;;;5114075;27;20126;-89
2023/04/13 06:25:37;;;;;;;8.75;3.08;;;7.30;99.90;;;;;;5128486;27;20143;-90
2023/04/13 06:28:03;;;;;;;7.68;2.50;;;7.40;99.90;;;;;;5098129;27;20450;-90
2023/04/13 06:30:29;;;;;;;7.88;2.72;;;7.40;99.90;;;;;;5096714;27;20043;-90
2023/04/13 06:32:55;;;;;;;7.55;2.95;;;7.40;99.90;;;;;;5082983;28;20027;-91
2023/04/13 06:35:21;;;;;;;7.45;2.70;;;7.40;99.90;;;;;;5094566;28;20122;-90
2023/04/13 06:37:47;;;;;;;7.88;2.50;;;7.50;99.90;;;;;;5084363;27;20034;-90
2023/04/13 06:40:14;;;;;;;8.32;2.67;;;7.50;99.90;;;;;;5097232;27;20594;-89
2023/04/13 06:42:41;;;;;;;6.43;2.63;;;7.50;99.90;;;;;;5096970;27;20075;-90
2023/04/13 06:45:11;;;;;;;7.43;2.30;;;7.60;99.90;;;;;;5114021;27;20035;-90
2023/04/13 06:47:40;;;;;;;9.18;2.65;;;7.60;99.90;;;;;;5097762;27;20039;-90
2023/04/13 06:50:08;;;;;;;8.48;2.83;;;7.70;99.90;;;;;;5096843;27;20077;-90
2023/04/13 06:52:35;;;;;;;8.38;2.53;;;7.80;99.90;;;;;;5097573;27;20511;-90
2023/04/13 06:55:01;;;;;;;9.95;2.97;;;7.90;99.90;;;;;;5097833;27;20080;-89
2023/04/13 06:57:27;;;;;;;9.32;2.83;;;7.90;99.90;;;;;;5113925;27;20035;-90
2023/04/13 06:59:53;;;;;;;8.52;2.15;;;8.00;99.90;;;;;;5096461;27;20549;-90
2023/04/13 07:02:19;;;;;;;6.82;2.28;;;8.00;99.90;;;;;;5096043;27;20476;-89
2023/04/13 07:04:44;;;;;;;6.82;2.63;;;8.00;99.90;;;;;;5113335;27;20104;-90
2023/04/13 07:07:10;;;;;;;6.93;2.65;;;8.10;99.90;;;;;;5114101;27;20038;-90
2023/04/13 07:09:36;;;;;;;9.65;2.63;;;8.10;99.90;;;;;;5096846;27;20122;-89
2023/04/13 07:12:06;;;;;;;6.28;2.25;;;8.10;99.90;;;;;;5115075;27;20107;-90
2023/04/13 07:14:36;;;;;;;8.43;2.17;;;8.10;99.90;;;;;;5096786;27;20523;-90
2023/04/13 07:17:02;;;;;;;5.10;1.70;;;8.20;99.90;;;;;;5097283;27;20126;-90
2023/04/13 07:19:32;;;;;;;8.77;1.60;;;8.20;99.90;;;;;;5094803;27;20039;-90
2023/04/13 07:21:58;;;;;;;8.05;2.33;;;8.20;99.90;;;;;;5076450;28;20503;-91
2023/04/13 07:24:27;;;;;;;8.43;2.35;;;8.20;99.90;;;;;;5111669;28;20044;-90
2023/04/13 07:26:57;;;;;;;6.53;2.20;;;8.10;99.90;;;;;;5084605;28;20122;-90
2023/04/13 07:29:26;;;;;;;5.20;1.50;;;8.20;99.90;;;;;;5077195;28;20058;-90
2023/04/13 07:31:57;;;;;;;8.23;2.03;;;8.20;99.90;;;;;;5089487;27;20039;-90
2023/04/13 07:34:22;;;;;;;8.85;2.17;;;8.30;99.90;;;;;;5097102;27;20040;-90
2023/04/13 07:36:48;;;;;;;8.05;2.53;;;8.40;99.90;;;;;;5114982;27;20039;-91
2023/04/13 07:39:14;;;;;;;6.28;1.85;;;8.50;99.90;;;;;;5088611;28;20050;-91
2023/04/13 07:41:39;;;;;;;6.57;2.55;;;8.50;99.90;;;;;;5093619;28;20433;-90
2023/04/13 07:44:05;;;;;;;6.15;1.75;;;8.50;99.90;;;;;;5119115;27;20445;-91
2023/04/13 07:46:34;;;;;;;6.70;1.38;;;8.50;99.90;;;;;;5096951;27;20506;-90
2023/04/13 07:49:00;;;;;;;7.60;1.85;;;8.50;99.90;;;;;;5132437;27;20067;-90
2023/04/13 07:51:26;;;;;;;3.92;1.08;;;8.60;99.90;;;;;;5096818;27;20058;-91
2023/04/13 07:53:52;;;;;;;7.68;1.95;;;8.60;99.90;;;;;;5096795;27;20122;-91
2023/04/13 07:56:18;;;;;;;7.70;1.75;;;8.60;99.90;;;;;;5113552;27;20126;-92
2023/04/13 07:58:44;;;;;;;8.00;3.00;;;8.60;99.90;;;;;;5092903;28;20051;-90
2023/04/13 08:01:10;;;;;;;5.13;1.90;;;8.50;99.90;;;;;;5095987;27;20084;-91
2023/04/13 08:03:36;;;;;;;6.00;1.95;;;8.50;99.90;;;;;;5128663;27;20045;-92
2023/04/13 08:06:09;;;;;;;5.40;1.33;;;8.50;99.90;;;;;;5093760;27;20117;-91
2023/04/13 08:08:34;;;;;;;;;;;8.50;99.90;;;;;;5089915;27;20058;-91
2023/04/13 08:11:00;;;;;;;3.28;1.38;;;8.50;99.90;;;;;;5113521;27;19970;-91
2023/04/13 08:13:27;;;;;;;4.95;1.50;;;8.60;99.90;;;;;;5102239;27;20495;-91
2023/04/13 08:15:56;;;;;;;7.05;2.03;;;8.70;99.90;;;;;;5078708;28;20101;-90
2023/04/13 08:18:28;;;;;;;5.72;1.98;;;8.70;99.90;;;;;;5076003;28;20553;-91
2023/04/13 08:20:54;;;;;;;7.28;2.05;;;8.80;99.90;;;;;;5090056;27;20092;-91
2023/04/13 08:23:21;;;;;;;5.40;1.80;;;8.80;99.90;;;;;;5113807;27;20500;-90
2023/04/13 08:25:46;;;;;;;5.70;1.60;;;8.80;99.90;;;;;;5112111;28;20507;-91
2023/04/13 08:28:12;;;;;;;6.22;2.00;;;8.80;99.90;;;;;;5101707;28;20032;-92
2023/04/13 08:30:38;;;;;;;4.57;2.00;;;8.90;99.90;;;;;;5087114;28;20042;-91
2023/04/13 08:33:04;;;;;;;8.18;2.40;;;8.90;99.90;;;;;;5112885;27;20023;-90
2023/04/13 08:35:30;;;;;;;5.45;2.13;;;8.90;99.90;;;;;;5102999;27;20060;-90
2023/04/13 08:37:55;;;;;;;7.57;2.35;;;8.80;99.90;;;;;;5094966;28;20035;-90
2023/04/13 08:40:21;;;;;;;7.30;2.20;;;8.80;99.90;;;;;;5085471;28;20035;-91
2023/04/13 08:42:47;;;;;;;6.88;2.40;;;8.80;99.90;;;;;;5085265;28;20031;-93
2023/04/13 08:45:14;;;;;;;9.82;2.75;;;8.80;99.90;;;;;;5087156;28;20510;-91
2023/04/13 08:47:40;;;;;;;6.40;2.42;;;8.80;99.90;;;;;;5085118;28;20035;-91
2023/04/13 08:50:08;;;;;;;7.32;2.63;;;8.90;99.90;;;;;;5086255;28;20116;-92
2023/04/13 08:52:35;;;;;;;6.07;2.10;;;8.90;99.90;;;;;;5110422;28;20044;-92
2023/04/13 08:55:02;;;;;;;7.32;2.30;;;8.80;99.90;;;;;;5086120;28;20058;-90
2023/04/13 08:57:29;;;;;;;6.35;2.50;;;8.80;99.90;;;;;;5086702;28;20565;-92
2023/04/13 08:59:57;;;;;;;7.30;2.58;;;8.70;99.90;;;;;;5084650;28;20080;-91
2023/04/13 09:02:27;;;;;;;7.13;2.10;;;8.80;99.90;;;;;;5101746;28;20043;-91
2023/04/13 09:04:54;;;;;;;3.90;1.20;;;8.80;99.90;;;;;;5103795;28;20031;-90
2023/04/13 09:07:26;;;;;;;5.22;1.80;;;8.70;99.90;;;;;;5096818;27;20038;-91
2023/04/13 09:09:59;;;;;;;7.15;2.40;;;8.70;99.90;;;;;;5105410;27;20066;-91
2023/04/13 09:12:31;;;;;;;8.13;3.25;;;8.70;99.90;;;;;;5115140;27;20041;-90
2023/04/13 09:14:56;;;;;;;5.10;1.85;;;8.70;99.90;;;;;;5137090;27;20508;-92
2023/04/13 09:17:27;;;;;;;4.32;1.17;;;8.70;99.90;;;;;;5123211;27;20031;-91
2023/04/13 09:19:56;;;;;;;5.15;1.40;;;8.70;99.90;;;;;;5103974;27;20045;-90
2023/04/13 09:22:24;;;;;;;2.83;1.00;;;8.70;99.90;;;;;;5097608;27;20508;-91
2023/04/13 09:24:50;;;;;;;4.68;1.48;;;8.70;99.90;;;;;;5127274;27;20042;-90
2023/04/13 09:27:20;;;;;;;2.35;0.57;;;8.60;99.90;;;;;;5107922;27;20716;-91
2023/04/13 09:29:57;;;;;;;0.70;0.38;;;8.40;99.90;;;;;;5101000;27;20046;-90
2023/04/13 09:32:25;;;;;;;1.83;0.57;;;8.10;99.90;;;;;;5105457;27;20501;-91
2023/04/13 09:35:04;;;;;;;1.40;0.40;;;7.90;99.90;;;;;;5089299;27;20405;-90
2023/04/13 09:37:41;;;;;;;3.70;0.68;;;7.70;99.90;;;;;;5112567;27;20041;-90
2023/04/13 09:40:15;;;;;;;2.75;0.60;;;7.50;99.90;;;;;;5089230;27;20133;-90
2023/04/13 09:43:03;;;;;;;2.40;0.70;;;7.50;99.90;;;;;;5121823;27;20622;-90
2023/04/13 09:45:47;;;;;;;1.33;0.40;;;7.60;99.90;;;;;;5105225;27;20062;-90
2023/04/13 09:48:19;;;;;;;3.03;0.80;;;7.80;99.90;;;;;;5087975;27;20119;-90
2023/04/13 09:50:45;;;;;;;2.88;0.90;;;8.10;99.90;;;;;;5105605;27;20031;-91
2023/04/13 09:53:10;;;;;;;5.50;1.30;;;8.30;99.90;;;;;;5124418;27;20109;-91
2023/04/13 09:55:37;;;;;;;3.42;0.98;;;8.60;99.90;;;;;;5126515;27;20113;-90
2023/04/13 09:58:14;;;;;;;4.05;1.00;;;8.80;99.90;;;;;;5108326;27;20099;-90
2023/04/13 10:00:41;;;;;;;5.63;0.98;;;8.90;99.90;;;;;;5078064;28;20050;-91
2023/04/13 10:03:10;;;;;;;5.30;1.10;;;8.90;99.90;;;;;;5102364;27;20043;-91
2023/04/13 10:05:36;;;;;;;3.33;1.02;;;8.90;99.90;;;;;;5078631;28;20074;-91
2023/04/13 10:08:03;;;;;;;3.90;1.00;;;9.00;99.90;;;;;;5080552;27;20043;-91
2023/04/13 10:10:29;;;;;;;5.03;1.02;;;9.10;99.90;;;;;;5096986;27;20074;-91
2023/04/13 10:12:59;;;;;;;2.50;0.65;;;9.20;99.90;;;;;;5098440;27;20082;-90
2023/04/13 10:16:11;;;;;;;5.80;1.50;;;9.40;99.90;;;;;;5098105;27;20027;-91
2023/04/13 10:19:01;;;;;;;3.50;0.82;;;9.60;99.90;;;;;;5111514;28;20036;-91
2023/04/13 10:21:38;;;;;;;4.00;0.90;;;9.80;99.90;;;;;;5078420;28;20514;-92
2023/04/13 10:24:05;;;;;;;4.50;1.02;;;9.90;99.90;;;;;;5091725;27;20122;-89
2023/04/13 10:26:32;;;;;;;4.18;1.05;;;10.00;99.90;;;;;;5098812;27;20039;-89
2023/04/13 10:29:00;;;;;;;5.00;1.23;;;10.10;99.90;;;;;;5105289;27;20046;-89
2023/04/13 10:31:36;;;;;;;3.97;0.80;;;10.20;99.90;;;;;;5098218;27;20035;-88
2023/04/13 10:34:03;;;;;;;4.13;1.00;;;10.20;99.90;;;;;;5115178;27;20063;-89
2023/04/13 10:36:42;;;;;;;3.50;1.15;;;10.10;99.90;;;;;;5131891;27;20518;-89
2023/04/13 10:39:09;;;;;;;7.60;1.20;;;10.00;99.90;;;;;;5114749;27;20043;-89
2023/04/13 10:41:36;;;;;;;5.93;0.82;;;9.90;99.90;;;;;;5114177;27;20031;-90
2023/04/13 10:44:04;;;;;;;5.47;1.17;;;9.90;99.90;;;;;;5110623;27;20039;-90
2023/04/13 10:46:32;;;;;;;3.67;0.98;;;9.90;99.90;;;;;;5098829;27;20113;-90
2023/04/13 10:48:59;;;;;;;4.57;0.82;;;9.90;99.90;;;;;;5095597;27;20034;-90
2023/04/13 10:51:46;;;;;;;6.32;1.27;;;10.00;99.90;;;;;;5097718;27;20415;-90
2023/04/13 10:54:13;;;;;;;4.68;0.95;;;10.10;99.90;;;;;;5097588;27;20041;-90
2023/04/13 10:56:39;;;;;;;8.02;1.55;;;10.20;99.90;;;;;;5098008;27;20472;-89
2023/04/13 10:59:05;;;;;;;4.32;0.98;;;10.30;99.90;;;;;;5132721;27;20372;-89
2023/04/13 11:01:32;;;;;;;2.75;0.70;;;10.30;99.90;;;;;;5104713;27;20028;-90
2023/04/13 11:04:03;;;;;;;5.95;1.33;;;10.30;99.90;;;;;;5107351;27;20083;-89
2023/04/13 11:06:35;;;;;;;3.53;0.88;;;10.30;99.90;;;;;;5097391;27;20031;-89
2023/04/13 11:09:05;;;;;;;6.38;1.77;;;10.20;99.90;;;;;;5125388;27;20039;-90
2023/04/13 11:11:33;;;;;;;5.20;1.08;;;10.20;99.90;;;;;;5101522;27;20033;-88
2023/04/13 11:13:59;;;;;;;4.88;1.20;;;10.30;99.90;;;;;;5140399;27;20046;-90
2023/04/13 11:16:24;;;;;;;7.93;1.65;;;10.40;99.90;;;;;;5143453;27;20468;-89
2023/04/13 11:19:03;;;;;;;10.60;1.98;;;10.60;99.90;;;;;;5103929;27;20074;-89
2023/04/13 11:21:34;;;;;;;7.90;1.52;;;10.60;99.90;;;;;;5107283;27;20058;-89
2023/04/13 11:24:01;;;;;;;3.90;0.93;;;10.70;99.90;;;;;;5101417;28;20041;-89
2023/04/13 11:26:34;;;;;;;7.75;1.40;;;10.70;99.90;;;;;;5104870;27;20031;-88
2023/04/13 11:28:59;;;;;;;;;;;10.70;99.90;;;;;;5121805;27;20031;-89
2023/04/13 11:31:38;;;;;;;7.30;1.23;;;10.80;99.90;;;;;;5115335;27;19968;-89
2023/04/13 11:34:08;;;;;;;4.88;1.25;;;10.80;99.90;;;;;;5108233;27;20035;-89
2023/04/13 11:36:34;;;;;;;5.70;1.77;;;10.70;99.90;;;;;;5105503;27;20158;-89
2023/04/13 11:39:01;;;;;;;7.03;1.40;;;10.70;99.90;;;;;;5105322;27;20397;-89
2023/04/13 11:41:28;;;;;;;6.50;1.58;;;10.60;99.90;;;;;;5123687;27;20090;-89
2023/04/13 11:43:54;;;;;;;6.68;1.15;;;10.60;99.90;;;;;;5140747;27;20047;-89
2023/04/13 11:46:23;;;;;;;9.07;1.45;;;10.70;99.90;;;;;;5106745;27;20142;-90
2023/04/13 11:48:51;;;;;;;8.40;1.60;;;10.70;99.90;;;;;;5097675;27;20551;-89
2023/04/13 11:51:20;;;;;;;6.20;1.63;;;10.80;99.90;;;;;;5122711;27;20076;-89
2023/04/13 11:53:46;;;;;;;12.23;1.80;;;10.80;99.90;;;;;;5106249;27;20031;-89
2023/04/13 11:56:13;;;;;;;8.88;1.70;;;10.90;99.90;;;;;;5098706;27;20077;-89
2023/04/13 11:58:39;;;;;;;4.85;1.13;;;11.00;99.90;;;;;;5076138;28;20036;-89
2023/04/13 12:01:08;;;;;;;4.93;1.20;;;11.00;99.90;;;;;;5083543;28;20043;-89
2023/04/13 12:03:35;;;;;;;9.75;2.25;;;11.00;99.90;;;;;;5109136;27;20072;-89
2023/04/13 12:06:01;;;;;;;8.55;1.48;;;11.10;99.90;;;;;;5114383;27;20039;-89
2023/04/13 12:08:28;;;;;;;7.60;1.75;;;11.10;99.90;;;;;;5131552;27;20633;-90
2023/04/13 12:11:02;;;;;;;5.85;1.17;;;11.00;99.90;;;;;;5088997;27;20067;-89
2023/04/13 12:13:41;;;;;;;8.27;1.65;;;10.90;99.90;;;;;;5130082;27;20050;-89
2023/04/13 12:16:07;;;;;;;11.98;2.03;;;10.80;99.90;;;;;;5132119;27;20054;-89
2023/04/13 12:18:43;;;;;;;5.03;1.20;;;10.70;99.90;;;;;;5095139;27;20023;-88
2023/04/13 12:21:14;;;;;;;11.68;1.73;;;10.70;99.90;;;;;;5096247;27;20043;-89
2023/04/13 12:24:00;;;;;;;7.90;1.15;;;10.70;99.90;;;;;;5091633;28;20199;-89
2023/04/13 12:26:35;;;;;;;8.52;1.27;;;10.70;99.90;;;;;;5076140;28;20075;-90
2023/04/13 12:29:03;;;;;;;7.65;1.58;;;10.80;99.90;;;;;;5098243;28;20035;-89
2023/04/13 12:31:37;;;;;;;6.28;1.10;;;10.90;99.90;;;;;;5103176;28;20090;-89
2023/04/13 12:34:06;;;;;;;8.23;1.10;;;11.00;99.90;;;;;;5096390;28;20039;-92
2023/04/13 12:36:34;;;;;;;4.95;1.33;;;11.00;99.90;;;;;;5087185;28;20073;-91
2023/04/13 12:39:01;;;;;;;3.63;1.00;;;11.00;99.90;;;;;;5131400;28;20051;-91
2023/04/13 12:41:27;;;;;;;6.00;1.08;;;11.00;99.90;;;;;;5130169;28;20031;-91
2023/04/13 12:43:53;;;;;;;7.35;1.48;;;11.10;99.90;;;;;;5113117;28;20058;-90
2023/04/13 12:46:19;;;;;;;7.43;1.60;;;11.30;99.90;;;;;;5113033;28;20067;-90
2023/04/13 12:48:45;;;;;;;6.97;1.13;;;11.40;99.90;;;;;;5088600;28;20127;-91
2023/04/13 12:51:11;;;;;;;9.20;1.58;;;11.70;99.90;;;;;;5092403;28;20613;-91
2023/04/13 12:53:37;;;;;;;7.60;1.20;;;11.90;99.90;;;;;;5096609;28;20043;-90
2023/04/13 12:56:02;;;;;;;5.88;1.13;;;11.80;98.80;;;;;;5113224;28;20028;-89
2023/04/13 12:58:28;;;;;;;6.82;1.60;;;11.70;97.40;;;;;;5136997;27;20034;-89
2023/04/13 13:00:54;;;;;;;11.82;2.15;;;11.70;98.60;;;;;;5129624;27;20126;-91